sensor_id;sensor_type;location;lat;lon;timestamp;temperature;humidity
25652;DHT22;13508;50.734;4.232;2022-07-03T00:02:51;18.30;99.90
25652;DHT22;13508;50.734;4.232;2022-07-03T00:05:54;18.20;99.90
25652;DHT22;13508;50.734;4.232;2022-07-03T00:09:00;18.20;99.90
25652;DHT22;13508;50.734;4.232;2022-07-03T00:12:05;18.30;99.90
25652;DHT22;13508;50.734;4.232;2022-07-03T00:15:09;18.40;99.90
25652;DHT22;13508;50.734;4.232;2022-07-03T00:18:12;18.30;99.90
25652;DHT22;13508;50.734;4.232;2022-07-03T00:21:29;18.20;99.90
25652;DHT22;13508;50.734;4.232;2022-07-03T00:24:42;18.00;99.90
25652;DHT22;13508;50.734;4.232;2022-07-03T00:27:48;18.10;99.90
25652;DHT22;13508;50.734;4.232;2022-07-03T00:30:52;18.50;99.90
25652;DHT22;13508;50.734;4.232;2022-07-03T00:33:58;18.50;99.90
25652;DHT22;13508;50.734;4.232;2022-07-03T00:37:02;18.50;99.90
25652;DHT22;13508;50.734;4.232;2022-07-03T00:40:07;18.60;99.90
25652;DHT22;13508;50.734;4.232;2022-07-03T00:43:14;18.60;99.90
25652;DHT22;13508;50.734;4.232;2022-07-03T00:46:22;18.80;99.90
25652;DHT22;13508;50.734;4.232;2022-07-03T00:49:27;18.70;99.90
25652;DHT22;13508;50.734;4.232;2022-07-03T00:52:33;18.70;99.90
25652;DHT22;13508;50.734;4.232;2022-07-03T00:55:37;18.80;99.90
25652;DHT22;13508;50.734;4.232;2022-07-03T00:58:42;18.80;99.90
25652;DHT22;13508;50.734;4.232;2022-07-03T01:01:47;19.00;99.90
25652;DHT22;13508;50.734;4.232;2022-07-03T01:08:42;18.60;99.90
25652;DHT22;13508;50.734;4.232;2022-07-03T01:12:06;18.70;99.90
25652;DHT22;13508;50.734;4.232;2022-07-03T01:22:37;18.30;99.90
25652;DHT22;13508;50.734;4.232;2022-07-03T01:25:47;18.40;99.90
25652;DHT22;13508;50.734;4.232;2022-07-03T01:28:51;18.30;99.90
25652;DHT22;13508;50.734;4.232;2022-07-03T01:31:55;18.00;99.90
25652;DHT22;13508;50.734;4.232;2022-07-03T01:35:01;18.10;99.90
25652;DHT22;13508;50.734;4.232;2022-07-03T01:38:12;18.10;99.90
25652;DHT22;13508;50.734;4.232;2022-07-03T01:41:16;18.10;99.90
25652;DHT22;13508;50.734;4.232;2022-07-03T01:44:22;18.10;99.90
25652;DHT22;13508;50.734;4.232;2022-07-03T01:47:27;17.90;99.90
25652;DHT22;13508;50.734;4.232;2022-07-03T01:50:32;17.90;99.90
25652;DHT22;13508;50.734;4.232;2022-07-03T01:53:36;17.90;99.90
25652;DHT22;13508;50.734;4.232;2022-07-03T01:56:43;17.60;99.90
25652;DHT22;13508;50.734;4.232;2022-07-03T01:59:48;17.70;99.90
25652;DHT22;13508;50.734;4.232;2022-07-03T02:03:02;17.50;99.90
25652;DHT22;13508;50.734;4.232;2022-07-03T02:06:12;17.50;99.90
25652;DHT22;13508;50.734;4.232;2022-07-03T02:09:18;17.50;99.90
25652;DHT22;13508;50.734;4.232;2022-07-03T02:12:29;17.60;99.90
25652;DHT22;13508;50.734;4.232;2022-07-03T02:15:36;17.50;99.90
25652;DHT22;13508;50.734;4.232;2022-07-03T02:18:43;17.40;99.90
25652;DHT22;13508;50.734;4.232;2022-07-03T02:21:51;17.50;99.90
25652;DHT22;13508;50.734;4.232;2022-07-03T02:28:30;17.40;99.90
25652;DHT22;13508;50.734;4.232;2022-07-03T02:32:00;17.20;99.90
25652;DHT22;13508;50.734;4.232;2022-07-03T02:35:05;17.00;99.90
25652;DHT22;13508;50.734;4.232;2022-07-03T02:38:16;16.90;99.90
25652;DHT22;13508;50.734;4.232;2022-07-03T02:41:25;16.90;99.90
25652;DHT22;13508;50.734;4.232;2022-07-03T02:44:44;17.20;99.90
25652;DHT22;13508;50.734;4.232;2022-07-03T02:51:13;17.00;99.90
25652;DHT22;13508;50.734;4.232;2022-07-03T02:54:20;17.00;99.90
25652;DHT22;13508;50.734;4.232;2022-07-03T02:57:23;17.00;99.90
25652;DHT22;13508;50.734;4.232;2022-07-03T03:00:27;16.70;99.90
25652;DHT22;13508;50.734;4.232;2022-07-03T03:03:39;16.70;99.90
25652;DHT22;13508;50.734;4.232;2022-07-03T03:06:50;16.70;99.90
25652;DHT22;13508;50.734;4.232;2022-07-03T03:09:56;16.70;99.90
25652;DHT22;13508;50.734;4.232;2022-07-03T03:13:21;16.60;99.90
25652;DHT22;13508;50.734;4.232;2022-07-03T03:16:27;16.60;99.90
25652;DHT22;13508;50.734;4.232;2022-07-03T03:19:39;16.40;99.90
25652;DHT22;13508;50.734;4.232;2022-07-03T03:26:19;16.30;99.90
25652;DHT22;13508;50.734;4.232;2022-07-03T03:29:23;16.30;99.90
25652;DHT22;13508;50.734;4.232;2022-07-03T03:32:27;16.30;99.90
25652;DHT22;13508;50.734;4.232;2022-07-03T03:35:30;16.10;99.90
25652;DHT22;13508;50.734;4.232;2022-07-03T03:38:34;16.30;99.90
25652;DHT22;13508;50.734;4.232;2022-07-03T03:41:38;16.30;99.90
25652;DHT22;13508;50.734;4.232;2022-07-03T03:44:41;16.30;99.90
25652;DHT22;13508;50.734;4.232;2022-07-03T03:47:45;16.30;99.90
25652;DHT22;13508;50.734;4.232;2022-07-03T03:50:48;16.40;99.90
25652;DHT22;13508;50.734;4.232;2022-07-03T03:53:52;16.50;99.90
25652;DHT22;13508;50.734;4.232;2022-07-03T03:57:24;16.60;99.90
25652;DHT22;13508;50.734;4.232;2022-07-03T04:00:28;16.40;99.90
25652;DHT22;13508;50.734;4.232;2022-07-03T04:03:32;16.20;99.90
25652;DHT22;13508;50.734;4.232;2022-07-03T04:06:36;16.30;99.90
25652;DHT22;13508;50.734;4.232;2022-07-03T04:09:39;16.40;99.90
25652;DHT22;13508;50.734;4.232;2022-07-03T04:12:42;16.30;99.90
25652;DHT22;13508;50.734;4.232;2022-07-03T04:15:46;16.20;99.90
25652;DHT22;13508;50.734;4.232;2022-07-03T04:18:49;16.20;99.90
25652;DHT22;13508;50.734;4.232;2022-07-03T04:21:52;15.90;99.90
25652;DHT22;13508;50.734;4.232;2022-07-03T04:24:55;16.00;99.90
25652;DHT22;13508;50.734;4.232;2022-07-03T04:27:59;16.10;99.90
25652;DHT22;13508;50.734;4.232;2022-07-03T04:31:02;16.20;99.90
25652;DHT22;13508;50.734;4.232;2022-07-03T04:34:05;16.30;99.90
25652;DHT22;13508;50.734;4.232;2022-07-03T04:37:09;16.40;99.90
25652;DHT22;13508;50.734;4.232;2022-07-03T04:40:13;16.50;99.90
25652;DHT22;13508;50.734;4.232;2022-07-03T04:43:16;16.60;99.90
25652;DHT22;13508;50.734;4.232;2022-07-03T04:46:21;16.50;99.90
25652;DHT22;13508;50.734;4.232;2022-07-03T04:49:24;16.70;99.90
25652;DHT22;13508;50.734;4.232;2022-07-03T04:52:28;17.20;99.90
25652;DHT22;13508;50.734;4.232;2022-07-03T04:55:31;18.20;99.90
25652;DHT22;13508;50.734;4.232;2022-07-03T04:58:34;19.50;99.90
25652;DHT22;13508;50.734;4.232;2022-07-03T05:01:37;21.30;99.90
25652;DHT22;13508;50.734;4.232;2022-07-03T05:04:41;20.50;99.90
25652;DHT22;13508;50.734;4.232;2022-07-03T05:07:45;20.10;99.90
25652;DHT22;13508;50.734;4.232;2022-07-03T05:10:48;19.60;99.90
25652;DHT22;13508;50.734;4.232;2022-07-03T05:13:51;19.20;99.90
25652;DHT22;13508;50.734;4.232;2022-07-03T05:16:54;19.60;99.90
25652;DHT22;13508;50.734;4.232;2022-07-03T05:19:58;21.10;99.90
25652;DHT22;13508;50.734;4.232;2022-07-03T05:23:19;20.60;99.90
25652;DHT22;13508;50.734;4.232;2022-07-03T05:26:23;20.20;99.90
25652;DHT22;13508;50.734;4.232;2022-07-03T05:29:26;20.10;99.90
25652;DHT22;13508;50.734;4.232;2022-07-03T05:32:29;19.90;99.90
25652;DHT22;13508;50.734;4.232;2022-07-03T05:35:32;19.90;99.90
25652;DHT22;13508;50.734;4.232;2022-07-03T05:38:35;19.60;99.90
25652;DHT22;13508;50.734;4.232;2022-07-03T05:41:57;19.30;99.90
25652;DHT22;13508;50.734;4.232;2022-07-03T05:45:01;19.10;99.90
25652;DHT22;13508;50.734;4.232;2022-07-03T05:48:05;19.90;99.90
25652;DHT22;13508;50.734;4.232;2022-07-03T05:51:08;21.30;99.90
25652;DHT22;13508;50.734;4.232;2022-07-03T05:54:12;21.50;99.90
25652;DHT22;13508;50.734;4.232;2022-07-03T05:57:15;22.80;99.90
25652;DHT22;13508;50.734;4.232;2022-07-03T06:00:19;23.00;99.90
25652;DHT22;13508;50.734;4.232;2022-07-03T06:03:21;24.90;99.90
25652;DHT22;13508;50.734;4.232;2022-07-03T06:06:24;25.70;98.90
25652;DHT22;13508;50.734;4.232;2022-07-03T06:09:28;27.00;95.70
25652;DHT22;13508;50.734;4.232;2022-07-03T06:12:31;26.30;95.20
25652;DHT22;13508;50.734;4.232;2022-07-03T06:15:34;24.00;99.90
25652;DHT22;13508;50.734;4.232;2022-07-03T06:18:37;24.80;99.30
25652;DHT22;13508;50.734;4.232;2022-07-03T06:21:41;24.90;98.70
25652;DHT22;13508;50.734;4.232;2022-07-03T06:24:44;25.30;98.30
25652;DHT22;13508;50.734;4.232;2022-07-03T06:27:47;25.90;97.60
25652;DHT22;13508;50.734;4.232;2022-07-03T06:30:51;25.00;99.10
25652;DHT22;13508;50.734;4.232;2022-07-03T06:33:54;25.00;99.40
25652;DHT22;13508;50.734;4.232;2022-07-03T06:36:57;25.30;98.50
25652;DHT22;13508;50.734;4.232;2022-07-03T06:40:00;24.30;99.90
25652;DHT22;13508;50.734;4.232;2022-07-03T06:43:04;23.30;99.90
25652;DHT22;13508;50.734;4.232;2022-07-03T06:46:06;22.70;99.90
25652;DHT22;13508;50.734;4.232;2022-07-03T06:49:10;22.70;99.90
25652;DHT22;13508;50.734;4.232;2022-07-03T06:52:13;22.70;99.90
25652;DHT22;13508;50.734;4.232;2022-07-03T06:55:17;23.50;99.90
25652;DHT22;13508;50.734;4.232;2022-07-03T06:58:20;24.50;99.90
25652;DHT22;13508;50.734;4.232;2022-07-03T07:01:24;23.10;99.90
25652;DHT22;13508;50.734;4.232;2022-07-03T07:04:27;21.50;99.90
25652;DHT22;13508;50.734;4.232;2022-07-03T07:07:30;21.40;99.90
25652;DHT22;13508;50.734;4.232;2022-07-03T07:10:34;21.00;99.90
25652;DHT22;13508;50.734;4.232;2022-07-03T07:13:37;22.70;99.90
25652;DHT22;13508;50.734;4.232;2022-07-03T07:16:40;24.80;99.90
25652;DHT22;13508;50.734;4.232;2022-07-03T07:19:43;24.40;99.90
25652;DHT22;13508;50.734;4.232;2022-07-03T07:22:47;22.40;99.90
25652;DHT22;13508;50.734;4.232;2022-07-03T07:25:50;22.00;99.90
25652;DHT22;13508;50.734;4.232;2022-07-03T07:28:53;24.70;99.90
25652;DHT22;13508;50.734;4.232;2022-07-03T07:31:56;25.90;99.60
25652;DHT22;13508;50.734;4.232;2022-07-03T07:35:00;26.90;98.00
25652;DHT22;13508;50.734;4.232;2022-07-03T07:38:03;27.10;96.40
25652;DHT22;13508;50.734;4.232;2022-07-03T07:41:06;24.90;99.90
25652;DHT22;13508;50.734;4.232;2022-07-03T07:44:10;25.70;99.10
25652;DHT22;13508;50.734;4.232;2022-07-03T07:47:13;24.80;99.90
25652;DHT22;13508;50.734;4.232;2022-07-03T07:50:17;26.90;97.70
25652;DHT22;13508;50.734;4.232;2022-07-03T07:53:20;27.30;97.00
25652;DHT22;13508;50.734;4.232;2022-07-03T07:56:25;28.00;95.40
25652;DHT22;13508;50.734;4.232;2022-07-03T07:59:27;29.20;93.70
25652;DHT22;13508;50.734;4.232;2022-07-03T08:02:31;27.60;94.40
25652;DHT22;13508;50.734;4.232;2022-07-03T08:06:03;25.20;99.30
25652;DHT22;13508;50.734;4.232;2022-07-03T08:09:06;25.20;99.50
25652;DHT22;13508;50.734;4.232;2022-07-03T08:12:09;25.80;98.50
25652;DHT22;13508;50.734;4.232;2022-07-03T08:15:13;26.20;97.20
25652;DHT22;13508;50.734;4.232;2022-07-03T08:18:16;26.50;96.70
25652;DHT22;13508;50.734;4.232;2022-07-03T08:21:19;27.20;95.60
25652;DHT22;13508;50.734;4.232;2022-07-03T08:24:23;29.10;92.40
25652;DHT22;13508;50.734;4.232;2022-07-03T08:27:26;28.30;92.90
25652;DHT22;13508;50.734;4.232;2022-07-03T08:30:29;28.10;93.30
25652;DHT22;13508;50.734;4.232;2022-07-03T08:33:33;26.90;94.40
25652;DHT22;13508;50.734;4.232;2022-07-03T08:36:37;25.30;98.10
25652;DHT22;13508;50.734;4.232;2022-07-03T08:39:40;24.70;99.60
25652;DHT22;13508;50.734;4.232;2022-07-03T08:42:49;25.80;98.30
25652;DHT22;13508;50.734;4.232;2022-07-03T08:45:56;25.20;99.10
25652;DHT22;13508;50.734;4.232;2022-07-03T08:49:02;26.50;97.00
25652;DHT22;13508;50.734;4.232;2022-07-03T08:52:07;26.10;97.50
25652;DHT22;13508;50.734;4.232;2022-07-03T08:55:14;26.10;97.30
25652;DHT22;13508;50.734;4.232;2022-07-03T08:58:21;25.40;98.60
25652;DHT22;13508;50.734;4.232;2022-07-03T09:01:25;23.70;99.90
25652;DHT22;13508;50.734;4.232;2022-07-03T09:04:28;24.30;99.90
25652;DHT22;13508;50.734;4.232;2022-07-03T09:07:36;25.80;98.40
25652;DHT22;13508;50.734;4.232;2022-07-03T09:10:39;27.20;95.90
25652;DHT22;13508;50.734;4.232;2022-07-03T09:13:43;25.50;98.70
25652;DHT22;13508;50.734;4.232;2022-07-03T09:16:46;23.90;99.90
25652;DHT22;13508;50.734;4.232;2022-07-03T09:19:50;23.40;99.90
25652;DHT22;13508;50.734;4.232;2022-07-03T09:22:53;23.40;99.90
25652;DHT22;13508;50.734;4.232;2022-07-03T09:25:58;23.90;99.90
25652;DHT22;13508;50.734;4.232;2022-07-03T09:29:02;24.60;99.90
25652;DHT22;13508;50.734;4.232;2022-07-03T09:32:06;23.40;99.90
25652;DHT22;13508;50.734;4.232;2022-07-03T09:35:20;23.60;99.90
25652;DHT22;13508;50.734;4.232;2022-07-03T09:38:23;24.20;99.90
25652;DHT22;13508;50.734;4.232;2022-07-03T09:41:26;26.10;98.00
25652;DHT22;13508;50.734;4.232;2022-07-03T09:44:36;25.70;97.70
25652;DHT22;13508;50.734;4.232;2022-07-03T09:47:40;25.50;97.40
25652;DHT22;13508;50.734;4.232;2022-07-03T09:50:43;25.40;98.00
25652;DHT22;13508;50.734;4.232;2022-07-03T09:54:01;24.30;99.10
25652;DHT22;13508;50.734;4.232;2022-07-03T09:57:12;25.60;97.00
25652;DHT22;13508;50.734;4.232;2022-07-03T10:00:28;26.70;94.90
25652;DHT22;13508;50.734;4.232;2022-07-03T10:03:32;25.00;96.90
25652;DHT22;13508;50.734;4.232;2022-07-03T10:06:57;23.80;99.90
25652;DHT22;13508;50.734;4.232;2022-07-03T10:10:00;24.00;99.30
25652;DHT22;13508;50.734;4.232;2022-07-03T10:13:04;23.80;99.20
25652;DHT22;13508;50.734;4.232;2022-07-03T10:16:07;23.20;99.40
25652;DHT22;13508;50.734;4.232;2022-07-03T10:19:17;23.40;99.70
25652;DHT22;13508;50.734;4.232;2022-07-03T10:22:22;22.80;99.90
25652;DHT22;13508;50.734;4.232;2022-07-03T10:25:27;22.40;99.90
25652;DHT22;13508;50.734;4.232;2022-07-03T10:28:30;23.90;97.70
25652;DHT22;13508;50.734;4.232;2022-07-03T10:31:34;24.00;97.00
25652;DHT22;13508;50.734;4.232;2022-07-03T10:34:38;23.90;97.00
25652;DHT22;13508;50.734;4.232;2022-07-03T10:44:52;23.00;98.30
25652;DHT22;13508;50.734;4.232;2022-07-03T10:48:05;23.40;99.40
25652;DHT22;13508;50.734;4.232;2022-07-03T10:51:12;22.40;99.90
25652;DHT22;13508;50.734;4.232;2022-07-03T10:54:33;21.80;99.90
25652;DHT22;13508;50.734;4.232;2022-07-03T10:57:42;22.70;99.90
25652;DHT22;13508;50.734;4.232;2022-07-03T11:00:52;22.40;99.90
25652;DHT22;13508;50.734;4.232;2022-07-03T11:04:01;22.50;99.90
25652;DHT22;13508;50.734;4.232;2022-07-03T11:07:07;22.90;99.90
25652;DHT22;13508;50.734;4.232;2022-07-03T11:13:16;23.20;99.90
25652;DHT22;13508;50.734;4.232;2022-07-03T11:16:23;23.60;99.50
25652;DHT22;13508;50.734;4.232;2022-07-03T11:19:28;22.60;99.90
25652;DHT22;13508;50.734;4.232;2022-07-03T11:29:27;22.40;99.50
25652;DHT22;13508;50.734;4.232;2022-07-03T11:35:50;23.60;98.50
25652;DHT22;13508;50.734;4.232;2022-07-03T11:42:03;25.10;95.30
25652;DHT22;13508;50.734;4.232;2022-07-03T11:45:07;26.20;93.80
25652;DHT22;13508;50.734;4.232;2022-07-03T11:48:17;26.60;94.20
25652;DHT22;13508;50.734;4.232;2022-07-03T11:51:21;25.60;93.10
25652;DHT22;13508;50.734;4.232;2022-07-03T11:54:25;25.00;95.10
25652;DHT22;13508;50.734;4.232;2022-07-03T11:57:29;25.10;93.70
25652;DHT22;13508;50.734;4.232;2022-07-03T12:00:33;24.90;94.90
25652;DHT22;13508;50.734;4.232;2022-07-03T12:03:36;24.60;94.90
25652;DHT22;13508;50.734;4.232;2022-07-03T12:06:47;24.00;95.60
25652;DHT22;13508;50.734;4.232;2022-07-03T12:09:55;24.80;95.30
25652;DHT22;13508;50.734;4.232;2022-07-03T12:12:58;24.10;95.00
25652;DHT22;13508;50.734;4.232;2022-07-03T12:16:08;23.60;96.20
25652;DHT22;13508;50.734;4.232;2022-07-03T12:19:12;23.60;96.10
25652;DHT22;13508;50.734;4.232;2022-07-03T12:22:35;24.20;94.90
25652;DHT22;13508;50.734;4.232;2022-07-03T12:25:41;24.50;94.70
25652;DHT22;13508;50.734;4.232;2022-07-03T12:28:49;25.20;93.20
25652;DHT22;13508;50.734;4.232;2022-07-03T12:31:53;24.90;91.70
25652;DHT22;13508;50.734;4.232;2022-07-03T12:34:57;25.20;92.10
25652;DHT22;13508;50.734;4.232;2022-07-03T12:38:02;25.00;91.80
25652;DHT22;13508;50.734;4.232;2022-07-03T12:41:07;25.30;91.20
25652;DHT22;13508;50.734;4.232;2022-07-03T12:44:10;24.30;94.50
25652;DHT22;13508;50.734;4.232;2022-07-03T12:47:27;23.10;96.90
25652;DHT22;13508;50.734;4.232;2022-07-03T12:50:50;23.00;97.90
25652;DHT22;13508;50.734;4.232;2022-07-03T12:54:03;23.60;97.60
25652;DHT22;13508;50.734;4.232;2022-07-03T12:57:09;23.70;97.30
25652;DHT22;13508;50.734;4.232;2022-07-03T13:00:42;23.80;96.90
25652;DHT22;13508;50.734;4.232;2022-07-03T13:03:49;24.20;96.70
25652;DHT22;13508;50.734;4.232;2022-07-03T13:06:59;24.50;96.70
25652;DHT22;13508;50.734;4.232;2022-07-03T13:10:03;24.50;95.50
25652;DHT22;13508;50.734;4.232;2022-07-03T13:13:08;24.40;96.00
25652;DHT22;13508;50.734;4.232;2022-07-03T13:16:27;24.10;95.70
25652;DHT22;13508;50.734;4.232;2022-07-03T13:19:30;23.80;95.60
25652;DHT22;13508;50.734;4.232;2022-07-03T13:22:34;24.00;95.40
25652;DHT22;13508;50.734;4.232;2022-07-03T13:25:38;24.50;95.30
25652;DHT22;13508;50.734;4.232;2022-07-03T13:28:46;25.00;94.80
25652;DHT22;13508;50.734;4.232;2022-07-03T13:31:54;24.90;94.80
25652;DHT22;13508;50.734;4.232;2022-07-03T13:34:58;24.40;93.70
25652;DHT22;13508;50.734;4.232;2022-07-03T13:38:03;24.60;93.80
25652;DHT22;13508;50.734;4.232;2022-07-03T13:41:08;24.40;94.90
25652;DHT22;13508;50.734;4.232;2022-07-03T13:44:11;24.10;94.20
25652;DHT22;13508;50.734;4.232;2022-07-03T13:47:14;24.40;94.30
25652;DHT22;13508;50.734;4.232;2022-07-03T13:50:30;24.10;95.10
25652;DHT22;13508;50.734;4.232;2022-07-03T13:53:35;24.00;95.80
25652;DHT22;13508;50.734;4.232;2022-07-03T13:56:39;23.90;95.60
25652;DHT22;13508;50.734;4.232;2022-07-03T13:59:42;23.70;95.90
25652;DHT22;13508;50.734;4.232;2022-07-03T14:02:45;23.60;95.80
25652;DHT22;13508;50.734;4.232;2022-07-03T14:05:49;23.70;96.00
25652;DHT22;13508;50.734;4.232;2022-07-03T14:08:54;23.70;94.50
25652;DHT22;13508;50.734;4.232;2022-07-03T14:11:57;23.30;96.10
25652;DHT22;13508;50.734;4.232;2022-07-03T14:15:02;23.60;96.60
25652;DHT22;13508;50.734;4.232;2022-07-03T14:18:06;23.90;93.80
25652;DHT22;13508;50.734;4.232;2022-07-03T14:21:10;23.80;94.90
25652;DHT22;13508;50.734;4.232;2022-07-03T14:24:15;23.90;94.30
25652;DHT22;13508;50.734;4.232;2022-07-03T14:27:19;24.20;92.50
25652;DHT22;13508;50.734;4.232;2022-07-03T14:30:42;24.20;92.30
25652;DHT22;13508;50.734;4.232;2022-07-03T14:34:04;24.20;93.10
25652;DHT22;13508;50.734;4.232;2022-07-03T14:37:08;24.10;93.30
25652;DHT22;13508;50.734;4.232;2022-07-03T14:40:12;24.40;94.30
25652;DHT22;13508;50.734;4.232;2022-07-03T14:43:15;23.70;95.50
25652;DHT22;13508;50.734;4.232;2022-07-03T14:46:18;23.10;95.90
25652;DHT22;13508;50.734;4.232;2022-07-03T14:49:22;23.10;96.60
25652;DHT22;13508;50.734;4.232;2022-07-03T14:56:40;23.40;96.20
25652;DHT22;13508;50.734;4.232;2022-07-03T15:03:07;23.50;94.80
25652;DHT22;13508;50.734;4.232;2022-07-03T15:06:14;23.30;96.20
25652;DHT22;13508;50.734;4.232;2022-07-03T15:09:26;23.60;96.00
25652;DHT22;13508;50.734;4.232;2022-07-03T15:12:33;23.40;95.10
25652;DHT22;13508;50.734;4.232;2022-07-03T15:15:38;23.20;95.30
25652;DHT22;13508;50.734;4.232;2022-07-03T15:18:43;23.00;95.10
25652;DHT22;13508;50.734;4.232;2022-07-03T15:21:47;22.90;95.50
25652;DHT22;13508;50.734;4.232;2022-07-03T15:24:52;23.10;94.70
25652;DHT22;13508;50.734;4.232;2022-07-03T15:27:56;23.70;94.10
25652;DHT22;13508;50.734;4.232;2022-07-03T15:31:00;23.80;94.50
25652;DHT22;13508;50.734;4.232;2022-07-03T15:34:05;23.90;93.70
25652;DHT22;13508;50.734;4.232;2022-07-03T15:37:35;23.60;93.70
25652;DHT22;13508;50.734;4.232;2022-07-03T15:44:00;23.30;94.10
25652;DHT22;13508;50.734;4.232;2022-07-03T15:50:59;22.70;94.80
25652;DHT22;13508;50.734;4.232;2022-07-03T15:54:05;22.90;94.70
25652;DHT22;13508;50.734;4.232;2022-07-03T15:57:22;23.00;94.80
25652;DHT22;13508;50.734;4.232;2022-07-03T16:00:27;23.40;94.10
25652;DHT22;13508;50.734;4.232;2022-07-03T16:03:42;23.60;92.40
25652;DHT22;13508;50.734;4.232;2022-07-03T16:06:50;23.40;93.10
25652;DHT22;13508;50.734;4.232;2022-07-03T16:09:59;23.60;93.10
25652;DHT22;13508;50.734;4.232;2022-07-03T16:13:03;23.90;92.60
25652;DHT22;13508;50.734;4.232;2022-07-03T16:16:12;23.20;93.40
25652;DHT22;13508;50.734;4.232;2022-07-03T16:19:17;22.80;95.00
25652;DHT22;13508;50.734;4.232;2022-07-03T16:22:24;22.80;95.20
25652;DHT22;13508;50.734;4.232;2022-07-03T16:25:31;22.70;95.80
25652;DHT22;13508;50.734;4.232;2022-07-03T16:28:36;22.50;96.70
25652;DHT22;13508;50.734;4.232;2022-07-03T16:31:40;22.30;96.20
25652;DHT22;13508;50.734;4.232;2022-07-03T16:38:00;22.30;96.50
25652;DHT22;13508;50.734;4.232;2022-07-03T16:41:05;22.50;95.70
25652;DHT22;13508;50.734;4.232;2022-07-03T16:44:09;22.30;96.40
25652;DHT22;13508;50.734;4.232;2022-07-03T16:47:13;22.70;96.60
25652;DHT22;13508;50.734;4.232;2022-07-03T16:50:21;23.10;94.30
25652;DHT22;13508;50.734;4.232;2022-07-03T16:53:25;23.30;93.90
25652;DHT22;13508;50.734;4.232;2022-07-03T16:56:30;23.10;94.30
25652;DHT22;13508;50.734;4.232;2022-07-03T16:59:35;22.90;94.80
25652;DHT22;13508;50.734;4.232;2022-07-03T17:02:41;22.50;95.30
25652;DHT22;13508;50.734;4.232;2022-07-03T17:05:46;22.70;94.10
25652;DHT22;13508;50.734;4.232;2022-07-03T17:08:49;22.50;94.10
25652;DHT22;13508;50.734;4.232;2022-07-03T17:11:53;22.50;94.50
25652;DHT22;13508;50.734;4.232;2022-07-03T17:14:57;22.60;94.60
25652;DHT22;13508;50.734;4.232;2022-07-03T17:18:05;22.70;94.40
25652;DHT22;13508;50.734;4.232;2022-07-03T17:21:09;22.90;94.40
25652;DHT22;13508;50.734;4.232;2022-07-03T17:24:18;22.60;94.10
25652;DHT22;13508;50.734;4.232;2022-07-03T17:27:26;22.20;95.00
25652;DHT22;13508;50.734;4.232;2022-07-03T17:30:38;22.10;95.70
25652;DHT22;13508;50.734;4.232;2022-07-03T17:33:49;22.20;95.60
25652;DHT22;13508;50.734;4.232;2022-07-03T17:36:53;21.90;95.30
25652;DHT22;13508;50.734;4.232;2022-07-03T17:39:57;21.90;95.70
25652;DHT22;13508;50.734;4.232;2022-07-03T17:43:03;21.80;95.90
25652;DHT22;13508;50.734;4.232;2022-07-03T17:46:07;21.70;96.50
25652;DHT22;13508;50.734;4.232;2022-07-03T17:49:15;21.60;96.30
25652;DHT22;13508;50.734;4.232;2022-07-03T17:52:24;21.60;96.40
25652;DHT22;13508;50.734;4.232;2022-07-03T17:55:28;21.50;96.50
25652;DHT22;13508;50.734;4.232;2022-07-03T17:58:34;21.50;96.60
25652;DHT22;13508;50.734;4.232;2022-07-03T18:01:37;21.50;96.50
25652;DHT22;13508;50.734;4.232;2022-07-03T18:04:42;21.40;96.70
25652;DHT22;13508;50.734;4.232;2022-07-03T18:07:57;21.50;96.60
25652;DHT22;13508;50.734;4.232;2022-07-03T18:11:25;21.70;96.60
25652;DHT22;13508;50.734;4.232;2022-07-03T18:15:21;22.00;96.80
25652;DHT22;13508;50.734;4.232;2022-07-03T18:21:36;21.90;96.40
25652;DHT22;13508;50.734;4.232;2022-07-03T18:24:42;22.00;97.40
25652;DHT22;13508;50.734;4.232;2022-07-03T18:27:47;21.90;97.70
25652;DHT22;13508;50.734;4.232;2022-07-03T18:30:52;21.80;98.10
25652;DHT22;13508;50.734;4.232;2022-07-03T18:33:56;21.60;98.10
25652;DHT22;13508;50.734;4.232;2022-07-03T18:37:01;21.20;99.10
25652;DHT22;13508;50.734;4.232;2022-07-03T18:40:05;20.90;99.90
25652;DHT22;13508;50.734;4.232;2022-07-03T18:43:09;20.80;99.90
25652;DHT22;13508;50.734;4.232;2022-07-03T18:46:12;20.70;99.90
25652;DHT22;13508;50.734;4.232;2022-07-03T18:49:16;20.60;99.90
25652;DHT22;13508;50.734;4.232;2022-07-03T18:55:35;20.50;99.90
25652;DHT22;13508;50.734;4.232;2022-07-03T18:58:50;20.40;99.90
25652;DHT22;13508;50.734;4.232;2022-07-03T19:01:56;20.30;99.90
25652;DHT22;13508;50.734;4.232;2022-07-03T19:05:01;20.30;99.90
25652;DHT22;13508;50.734;4.232;2022-07-03T19:08:09;20.20;99.90
25652;DHT22;13508;50.734;4.232;2022-07-03T19:11:14;20.10;99.90
25652;DHT22;13508;50.734;4.232;2022-07-03T19:14:26;20.00;99.90
25652;DHT22;13508;50.734;4.232;2022-07-03T19:17:32;20.00;99.90
25652;DHT22;13508;50.734;4.232;2022-07-03T19:20:37;20.00;99.90
25652;DHT22;13508;50.734;4.232;2022-07-03T19:23:41;20.00;99.90
25652;DHT22;13508;50.734;4.232;2022-07-03T19:26:45;20.10;99.90
25652;DHT22;13508;50.734;4.232;2022-07-03T19:29:49;20.00;99.90
25652;DHT22;13508;50.734;4.232;2022-07-03T19:32:53;19.90;99.90
25652;DHT22;13508;50.734;4.232;2022-07-03T19:35:56;19.80;99.90
25652;DHT22;13508;50.734;4.232;2022-07-03T19:39:00;19.70;99.90
25652;DHT22;13508;50.734;4.232;2022-07-03T19:42:03;19.60;99.90
25652;DHT22;13508;50.734;4.232;2022-07-03T19:45:09;19.60;99.90
25652;DHT22;13508;50.734;4.232;2022-07-03T19:48:13;19.60;99.90
25652;DHT22;13508;50.734;4.232;2022-07-03T19:51:17;19.60;99.90
25652;DHT22;13508;50.734;4.232;2022-07-03T19:54:22;19.40;99.90
25652;DHT22;13508;50.734;4.232;2022-07-03T19:57:25;19.60;99.90
25652;DHT22;13508;50.734;4.232;2022-07-03T20:00:28;19.30;99.90
25652;DHT22;13508;50.734;4.232;2022-07-03T20:03:32;19.30;99.90
25652;DHT22;13508;50.734;4.232;2022-07-03T20:06:35;19.20;99.90
25652;DHT22;13508;50.734;4.232;2022-07-03T20:09:39;19.20;99.90
25652;DHT22;13508;50.734;4.232;2022-07-03T20:12:43;19.30;99.90
25652;DHT22;13508;50.734;4.232;2022-07-03T20:15:46;19.30;99.90
25652;DHT22;13508;50.734;4.232;2022-07-03T20:18:49;19.40;99.90
25652;DHT22;13508;50.734;4.232;2022-07-03T20:21:52;19.30;99.90
25652;DHT22;13508;50.734;4.232;2022-07-03T20:24:56;19.40;99.90
25652;DHT22;13508;50.734;4.232;2022-07-03T20:28:01;19.60;99.90
25652;DHT22;13508;50.734;4.232;2022-07-03T20:31:05;19.60;99.90
25652;DHT22;13508;50.734;4.232;2022-07-03T20:34:08;19.70;99.90
25652;DHT22;13508;50.734;4.232;2022-07-03T20:37:13;19.60;99.90
25652;DHT22;13508;50.734;4.232;2022-07-03T20:40:18;19.60;99.90
25652;DHT22;13508;50.734;4.232;2022-07-03T20:43:21;19.60;99.90
25652;DHT22;13508;50.734;4.232;2022-07-03T20:46:25;19.60;99.90